Time;durP1;ratioP1;P1;durP2;ratioP2;P2;SDS_P1;SDS_P2;PMS_P1;PMS_P2;Temp;Humidity;BMP_temperature;BMP_pressure;BME280_temperature;BME280_humidity;BME280_pressure;Samples;Min_cycle;Max_cycle;Signal;HPM_P1;HPM_P2
2022/06/09 00:01:19;;;;;;;1.93;1.47;;;18.90;38.20;;;;;;10523651;28;20258;-76
2022/06/09 00:06:25;;;;;;;2.23;1.30;;;18.90;38.20;;;;;;10564265;27;20223;-76
2022/06/09 00:11:30;;;;;;;2.07;1.47;;;18.90;38.30;;;;;;10566308;27;20313;-76
2022/06/09 00:16:34;;;;;;;1.30;1.20;;;18.80;38.70;;;;;;10563347;27;20235;-76
2022/06/09 00:21:38;;;;;;;1.77;1.27;;;18.80;38.10;;;;;;10564269;28;20252;-76
2022/06/09 00:26:42;;;;;;;1.90;1.40;;;18.80;38.70;;;;;;10560530;27;20227;-76
2022/06/09 00:31:45;;;;;;;2.33;1.30;;;18.80;39.20;;;;;;10517639;28;20238;-76
2022/06/09 00:36:49;;;;;;;1.37;1.27;;;18.80;38.40;;;;;;10533763;27;20231;-76
2022/06/09 00:41:53;;;;;;;1.60;1.50;;;18.70;38.60;;;;;;10557471;28;20703;-76
2022/06/09 00:47:02;;;;;;;1.77;1.60;;;18.80;39.70;;;;;;10555019;27;20219;-76
2022/06/09 00:52:09;;;;;;;1.97;1.73;;;18.80;40.00;;;;;;10552756;27;20217;-76
2022/06/09 00:57:18;;;;;;;1.57;1.23;;;18.80;39.70;;;;;;10563366;28;20224;-76
2022/06/09 01:02:22;;;;;;;1.57;1.43;;;18.70;40.70;;;;;;10550225;28;20230;-76
2022/06/09 01:07:32;;;;;;;2.33;1.47;;;18.80;39.50;;;;;;10557909;28;20227;-76
2022/06/09 01:12:39;;;;;;;2.37;1.50;;;18.80;40.60;;;;;;10558560;28;20764;-76
2022/06/09 01:17:52;;;;;;;1.60;1.27;;;18.90;40.50;;;;;;10549706;28;20224;-76
2022/06/09 01:23:40;;;;;;;2.03;1.27;;;18.90;41.30;;;;;;10552592;28;20235;-76
2022/06/09 01:29:12;;;;;;;2.07;1.50;;;19.00;40.40;;;;;;10557697;28;20253;-76
2022/06/09 01:34:24;;;;;;;1.53;1.43;;;19.00;40.80;;;;;;10553921;28;20233;-76
2022/06/09 01:39:31;;;;;;;1.57;1.27;;;19.00;40.80;;;;;;10556853;28;20222;-76
2022/06/09 01:44:34;;;;;;;1.67;1.53;;;19.10;40.00;;;;;;10557372;28;20242;-76
2022/06/09 01:49:38;;;;;;;2.77;1.60;;;19.10;39.30;;;;;;10548267;28;21052;-76
2022/06/09 01:54:43;;;;;;;2.50;1.90;;;19.10;40.00;;;;;;10561737;27;20231;-77
2022/06/09 01:59:50;;;;;;;2.10;1.90;;;19.10;39.70;;;;;;10569634;27;20233;-77
2022/06/09 02:04:59;;;;;;;1.67;1.57;;;19.10;40.20;;;;;;10572948;27;20241;-77
2022/06/09 02:10:16;;;;;;;3.83;1.80;;;19.10;40.20;;;;;;10563682;27;20219;-77
2022/06/09 02:15:25;;;;;;;2.70;1.90;;;19.00;40.80;;;;;;10569666;27;20232;-76
2022/06/09 02:20:30;;;;;;;1.93;1.80;;;19.00;40.40;;;;;;10558683;27;20230;-76
2022/06/09 02:25:33;;;;;;;2.10;1.93;;;19.00;39.90;;;;;;10572982;27;20250;-77
2022/06/09 02:30:38;;;;;;;3.43;1.90;;;19.00;39.30;;;;;;10560896;27;20222;-76
2022/06/09 02:35:54;;;;;;;1.77;1.67;;;19.00;39.90;;;;;;10565749;27;20242;-76
2022/06/09 02:40:57;;;;;;;1.80;1.70;;;18.90;40.20;;;;;;10570059;27;20229;-77
2022/06/09 02:46:01;;;;;;;1.70;1.60;;;18.90;39.60;;;;;;10562546;27;20269;-77
2022/06/09 02:51:23;;;;;;;1.80;1.70;;;18.90;39.40;;;;;;10521097;27;20224;-76
2022/06/09 02:56:26;;;;;;;1.50;1.40;;;18.80;40.40;;;;;;10527483;27;20228;-76
2022/06/09 03:01:30;;;;;;;1.40;1.30;;;18.80;39.70;;;;;;10521809;27;20224;-77
2022/06/09 03:06:35;;;;;;;1.60;1.50;;;18.70;39.50;;;;;;10513100;28;20248;-77
2022/06/09 03:11:38;;;;;;;1.93;1.43;;;18.70;40.40;;;;;;10521258;28;20235;-76
2022/06/09 03:16:41;;;;;;;1.60;1.50;;;18.70;39.80;;;;;;10513024;28;20611;-77
2022/06/09 03:21:47;;;;;;;1.53;1.43;;;18.70;40.60;;;;;;10503564;28;20767;-77
2022/06/09 03:26:50;;;;;;;2.03;1.50;;;18.70;40.40;;;;;;10511007;28;20224;-77
2022/06/09 03:31:53;;;;;;;1.90;1.77;;;18.70;39.90;;;;;;10515760;28;20228;-77
2022/06/09 03:36:58;;;;;;;1.80;1.70;;;18.80;40.20;;;;;;10515561;28;20224;-76
2022/06/09 03:42:01;;;;;;;1.70;1.60;;;18.80;40.60;;;;;;10516316;28;20219;-76
2022/06/09 03:47:05;;;;;;;2.03;1.80;;;18.70;39.90;;;;;;10548605;28;20249;-77
2022/06/09 03:52:10;;;;;;;1.80;1.70;;;18.70;39.90;;;;;;10546609;27;20233;-77
2022/06/09 03:57:13;;;;;;;2.10;1.90;;;18.70;40.50;;;;;;10559411;28;20249;-77
2022/06/09 04:02:16;;;;;;;2.10;1.80;;;18.70;40.00;;;;;;10552974;28;20215;-77
2022/06/09 04:07:21;;;;;;;3.13;2.17;;;18.70;40.00;;;;;;10559831;28;20226;-77
2022/06/09 04:12:24;;;;;;;1.97;1.87;;;18.60;40.50;;;;;;10554342;28;20226;-77
2022/06/09 04:17:28;;;;;;;2.47;2.10;;;18.50;40.00;;;;;;10551797;28;20222;-77
2022/06/09 04:22:33;;;;;;;2.00;1.90;;;18.50;40.20;;;;;;10551402;28;20216;-77
2022/06/09 04:27:37;;;;;;;2.10;2.00;;;18.50;40.90;;;;;;10563373;28;20226;-77
2022/06/09 04:32:40;;;;;;;1.80;1.70;;;18.50;40.60;;;;;;10559586;28;20234;-78
2022/06/09 04:38:03;;;;;;;2.17;2.07;;;18.50;40.70;;;;;;10559686;27;20238;-77
2022/06/09 04:43:08;;;;;;;2.27;2.17;;;18.50;41.30;;;;;;10556168;27;20694;-77
2022/06/09 04:48:13;;;;;;;2.30;2.10;;;18.50;41.20;;;;;;10554061;28;20222;-77
2022/06/09 04:53:17;;;;;;;3.33;2.40;;;18.50;40.80;;;;;;10552230;27;20674;-77
2022/06/09 04:58:21;;;;;;;2.30;2.10;;;18.60;41.20;;;;;;10553029;28;20713;-77
2022/06/09 05:03:24;;;;;;;2.40;2.30;;;18.50;40.80;;;;;;10553937;28;20231;-77
2022/06/09 05:08:29;;;;;;;2.60;2.40;;;18.50;40.80;;;;;;10554535;27;20224;-77
2022/06/09 05:13:32;;;;;;;2.60;2.40;;;18.50;41.40;;;;;;10560863;27;20231;-76
2022/06/09 05:18:36;;;;;;;2.60;2.40;;;18.50;40.90;;;;;;10556708;28;20241;-77
2022/06/09 05:23:41;;;;;;;2.70;2.50;;;18.50;41.00;;;;;;10556607;28;20230;-76
2022/06/09 05:28:44;;;;;;;2.80;2.60;;;18.60;41.70;;;;;;10542005;27;20240;-77
2022/06/09 05:33:48;;;;;;;3.10;2.90;;;18.60;41.30;;;;;;10548968;28;20737;-76
2022/06/09 05:49:34;;;;;;;3.00;2.80;;;18.70;41.50;;;;;;10554031;28;20215;-77
2022/06/09 05:54:38;;;;;;;3.40;3.20;;;18.70;42.10;;;;;;10548114;28;20227;-77
2022/06/09 05:59:41;;;;;;;3.00;2.80;;;18.70;41.70;;;;;;10551335;28;20226;-77
2022/06/09 06:04:45;;;;;;;3.17;3.00;;;18.70;41.50;;;;;;10553067;28;20231;-77
2022/06/09 06:09:50;;;;;;;3.10;2.80;;;18.80;41.60;;;;;;10545370;28;20234;-76
2022/06/09 06:14:53;;;;;;;3.00;2.80;;;18.80;41.90;;;;;;10551379;28;20235;-77
2022/06/09 06:19:56;;;;;;;2.20;2.10;;;18.90;41.50;;;;;;10555586;28;20234;-77
2022/06/09 06:25:02;;;;;;;2.50;2.30;;;18.90;41.50;;;;;;10559587;28;20310;-77
2022/06/09 06:30:06;;;;;;;3.80;2.20;;;18.90;42.00;;;;;;10556368;28;20215;-77
2022/06/09 06:35:10;;;;;;;2.33;2.23;;;19.00;41.80;;;;;;10550528;28;20227;-76
2022/06/09 06:40:19;;;;;;;2.93;2.40;;;19.10;41.90;;;;;;10558219;28;20226;-77
2022/06/09 06:45:23;;;;;;;2.90;2.70;;;19.10;42.10;;;;;;10561528;28;20224;-77
2022/06/09 06:50:27;;;;;;;3.50;2.53;;;19.10;41.60;;;;;;10557173;28;20232;-77
2022/06/09 06:55:31;;;;;;;2.40;2.30;;;19.20;42.20;;;;;;10563598;28;20255;-77
2022/06/09 07:00:37;;;;;;;4.33;2.17;;;19.20;42.00;;;;;;10557110;27;20319;-77
2022/06/09 07:05:41;;;;;;;2.20;2.00;;;19.30;41.80;;;;;;10557531;28;20241;-77
2022/06/09 07:10:46;;;;;;;2.00;1.90;;;19.30;41.70;;;;;;10566738;28;20218;-77
2022/06/09 07:15:50;;;;;;;2.90;1.90;;;19.40;42.20;;;;;;10560035;28;20219;-77
2022/06/09 07:20:58;;;;;;;2.20;2.10;;;19.40;42.00;;;;;;10555110;28;20310;-76
2022/06/09 07:26:06;;;;;;;3.63;2.27;;;19.50;41.90;;;;;;10559667;27;20236;-76
2022/06/09 07:31:09;;;;;;;2.57;2.43;;;19.50;41.90;;;;;;10551270;28;20230;-76
2022/06/09 07:36:16;;;;;;;3.73;2.60;;;19.50;41.90;;;;;;10561803;27;20309;-76
2022/06/09 07:41:22;;;;;;;2.37;2.17;;;19.60;41.80;;;;;;10558777;27;20315;-76
2022/06/09 07:46:34;;;;;;;2.47;2.07;;;19.60;41.80;;;;;;10565262;27;20269;-76
2022/06/09 07:51:38;;;;;;;2.40;2.17;;;19.60;41.20;;;;;;10558988;27;20899;-77
2022/06/09 07:56:50;;;;;;;2.33;1.90;;;19.70;41.30;;;;;;10556879;27;20241;-76
2022/06/09 08:01:53;;;;;;;2.20;2.00;;;19.70;41.40;;;;;;10556729;28;20265;-76
2022/06/09 08:07:03;;;;;;;3.00;2.10;;;19.70;41.10;;;;;;10550230;27;20234;-76
2022/06/09 08:12:15;;;;;;;2.23;1.87;;;19.70;41.30;;;;;;10562838;27;20291;-76
2022/06/09 08:17:18;;;;;;;1.90;1.80;;;19.70;41.80;;;;;;10555443;27;20226;-76
2022/06/09 08:22:21;;;;;;;2.17;1.83;;;19.70;41.40;;;;;;10560109;27;20227;-76
2022/06/09 08:27:26;;;;;;;2.20;2.00;;;19.80;41.40;;;;;;10555461;27;20231;-76
2022/06/09 08:32:30;;;;;;;2.10;1.90;;;19.80;41.60;;;;;;10558077;27;20223;-76
2022/06/09 08:37:33;;;;;;;2.43;2.00;;;19.80;41.20;;;;;;10552785;27;20233;-76
2022/06/09 08:42:49;;;;;;;2.83;1.80;;;19.80;41.10;;;;;;10554785;27;20652;-76
2022/06/09 08:47:55;;;;;;;3.50;2.10;;;19.90;41.60;;;;;;10549992;27;20242;-76
2022/06/09 08:53:04;;;;;;;3.30;2.03;;;19.90;41.20;;;;;;10549729;28;20253;-76
2022/06/09 08:58:22;;;;;;;3.60;1.70;;;20.00;40.50;;;;;;10557988;27;20667;-77
2022/06/09 09:03:29;;;;;;;2.23;1.73;;;20.00;41.10;;;;;;10549974;28;20237;-76
2022/06/09 09:08:32;;;;;;;3.03;1.80;;;20.10;40.50;;;;;;10548373;28;20978;-76
2022/06/09 09:13:50;;;;;;;2.73;1.60;;;20.20;40.20;;;;;;10558693;28;20238;-76
2022/06/09 09:18:55;;;;;;;2.10;1.50;;;20.20;39.40;;;;;;10557110;28;20229;-76
2022/06/09 09:24:07;;;;;;;3.67;2.07;;;20.20;39.80;;;;;;10552296;28;20235;-76
2022/06/09 09:29:16;;;;;;;1.50;1.40;;;20.20;39.40;;;;;;10507930;28;20218;-76
2022/06/09 09:34:22;;;;;;;1.93;1.60;;;20.20;38.90;;;;;;10513691;28;20223;-76
2022/06/09 09:39:34;;;;;;;1.97;1.23;;;20.20;38.70;;;;;;10508032;28;20262;-76
2022/06/09 09:44:39;;;;;;;2.07;1.27;;;20.30;39.00;;;;;;10510220;28;20712;-77
2022/06/09 09:49:49;;;;;;;4.33;1.33;;;20.30;38.80;;;;;;10502279;28;20226;-76
2022/06/09 09:54:53;;;;;;;2.83;1.23;;;20.40;38.50;;;;;;10515871;28;20238;-76
2022/06/09 09:59:59;;;;;;;1.30;1.10;;;20.50;38.50;;;;;;10555270;27;20738;-76
2022/06/09 10:11:53;;;;;;;0.97;0.90;;;20.40;36.90;;;;;;10535549;28;20219;-76
2022/06/09 10:16:53;;;;;;;1.20;0.80;;;20.20;36.70;;;;;;10560706;27;20290;-76
2022/06/09 10:22:20;;;;;;;1.57;1.10;;;19.90;36.40;;;;;;10557205;28;20230;-76
2022/06/09 10:27:40;;;;;;;1.90;1.10;;;19.70;36.20;;;;;;10558939;28;20235;-76
2022/06/09 10:32:51;;;;;;;1.73;1.10;;;19.60;37.30;;;;;;10561220;28;20227;-76
2022/06/09 10:38:05;;;;;;;1.53;1.30;;;19.60;37.40;;;;;;10566011;27;20226;-76
2022/06/09 10:43:20;;;;;;;1.70;1.37;;;19.60;38.20;;;;;;10556617;28;20227;-75
2022/06/09 10:59:25;;;;;;;1.70;1.60;;;20.00;38.40;;;;;;10554728;28;20470;-76
2022/06/09 11:04:35;;;;;;;1.20;1.20;;;20.20;39.20;;;;;;10555123;28;20719;-76
2022/06/09 11:09:52;;;;;;;1.87;1.27;;;20.40;38.20;;;;;;10561980;27;20222;-76
2022/06/09 11:15:11;;;;;;;1.93;1.50;;;20.60;37.90;;;;;;10556343;28;20241;-76
2022/06/09 11:20:25;;;;;;;1.53;1.40;;;20.80;37.70;;;;;;10516387;28;20229;-76
2022/06/09 11:25:41;;;;;;;1.73;1.40;;;20.90;37.30;;;;;;10512591;28;20228;-76
2022/06/09 11:30:58;;;;;;;1.23;1.20;;;21.00;37.40;;;;;;10553694;28;20257;-76
2022/06/09 11:36:13;;;;;;;1.53;1.30;;;21.20;37.60;;;;;;10535431;27;20703;-75
2022/06/09 11:41:30;;;;;;;2.27;1.40;;;21.40;37.00;;;;;;10554108;28;20223;-76
2022/06/09 11:46:52;;;;;;;1.37;1.20;;;21.50;37.60;;;;;;10544928;28;20237;-76
2022/06/09 11:52:01;;;;;;;1.37;1.23;;;21.70;36.40;;;;;;10547512;27;20216;-76
2022/06/09 11:57:25;;;;;;;1.80;1.17;;;21.90;36.40;;;;;;10551748;28;20234;-76
2022/06/09 12:03:10;;;;;;;1.10;1.10;;;22.00;34.50;;;;;;10550000;28;20277;-76
2022/06/09 12:08:29;;;;;;;4.17;1.20;;;22.20;34.30;;;;;;10506384;28;20611;-76
2022/06/09 12:13:54;;;;;;;1.30;1.20;;;22.20;32.40;;;;;;10508451;28;20549;-76
2022/06/09 12:19:18;;;;;;;1.60;1.40;;;22.30;34.30;;;;;;10517444;28;20970;-76
2022/06/09 12:24:30;;;;;;;2.73;0.97;;;22.40;33.90;;;;;;10514357;28;20671;-76
2022/06/09 12:29:45;;;;;;;1.40;1.30;;;22.60;33.60;;;;;;10504046;28;20269;-76
2022/06/09 12:34:51;;;;;;;2.80;1.30;;;22.80;32.60;;;;;;10534332;28;20244;-77
2022/06/09 12:40:00;;;;;;;1.90;1.20;;;22.90;33.20;;;;;;10545784;27;20227;-76
2022/06/09 12:45:17;;;;;;;1.33;1.23;;;22.90;31.10;;;;;;10508982;28;20219;-76
2022/06/09 12:50:43;;;;;;;1.73;1.33;;;22.80;30.90;;;;;;10528240;28;20225;-76
2022/06/09 12:55:53;;;;;;;1.37;1.27;;;22.60;30.20;;;;;;10553459;27;20238;-76
2022/06/09 13:00:59;;;;;;;1.07;0.80;;;22.70;31.10;;;;;;10551644;28;20227;-76
2022/06/09 13:06:12;;;;;;;1.13;1.07;;;22.70;31.50;;;;;;10550416;28;20271;-76
2022/06/09 13:12:50;;;;;;;1.87;1.30;;;22.70;31.50;;;;;;10548380;28;20226;-76
2022/06/09 13:16:48;;;;;;;1.33;1.10;;;22.80;30.60;;;;;;10547099;28;20248;-76
2022/06/09 13:21:53;;;;;;;1.63;1.30;;;22.90;31.50;;;;;;10541374;28;20637;-76
2022/06/09 13:26:59;;;;;;;1.93;1.37;;;22.90;31.80;;;;;;10551370;28;20305;-76
2022/06/09 13:32:20;;;;;;;1.30;1.20;;;22.90;30.60;;;;;;10548605;28;20234;-76
2022/06/09 13:37:37;;;;;;;2.43;1.10;;;22.90;30.20;;;;;;10543256;28;20605;-76
2022/06/09 13:42:48;;;;;;;1.37;1.17;;;22.90;29.80;;;;;;10554407;27;20226;-76
2022/06/09 13:48:15;;;;;;;1.33;1.20;;;22.90;29.50;;;;;;10550390;28;20223;-76
2022/06/09 13:53:31;;;;;;;2.10;1.30;;;22.90;30.00;;;;;;10551019;28;20690;-76
2022/06/09 13:58:35;;;;;;;1.60;1.30;;;22.90;28.80;;;;;;10546009;28;20227;-76
2022/06/09 14:03:44;;;;;;;1.40;1.30;;;22.90;30.20;;;;;;10552896;28;20575;-76
2022/06/09 14:08:51;;;;;;;1.30;1.20;;;23.00;30.50;;;;;;10548158;28;20238;-76
2022/06/09 14:13:56;;;;;;;2.20;1.30;;;23.00;30.70;;;;;;10547857;28;20241;-76
2022/06/09 14:19:00;;;;;;;1.50;1.20;;;23.00;30.00;;;;;;10540987;28;20223;-76
2022/06/09 14:24:05;;;;;;;3.40;1.30;;;23.00;30.50;;;;;;10553727;27;20227;-75
2022/06/09 14:29:14;;;;;;;1.33;1.23;;;22.90;30.30;;;;;;10552113;27;20583;-76
2022/06/09 14:34:17;;;;;;;1.30;1.03;;;22.90;30.00;;;;;;10552556;28;20298;-76
2022/06/09 14:39:22;;;;;;;2.80;1.23;;;22.90;30.70;;;;;;10555295;27;20229;-76
2022/06/09 14:44:26;;;;;;;1.47;0.80;;;23.00;30.40;;;;;;10546455;27;20226;-76
2022/06/09 14:49:33;;;;;;;1.50;1.07;;;22.90;30.00;;;;;;10553864;27;20220;-76
2022/06/09 14:54:36;;;;;;;1.50;1.10;;;22.90;30.40;;;;;;10547647;27;20607;-76
2022/06/09 14:59:41;;;;;;;1.63;1.07;;;22.90;30.00;;;;;;10555771;27;20228;-76
2022/06/09 15:04:44;;;;;;;1.43;1.00;;;22.80;29.60;;;;;;10555286;27;20281;-76
2022/06/09 15:09:49;;;;;;;1.07;0.87;;;22.80;30.00;;;;;;10562920;27;20223;-76
2022/06/09 15:14:53;;;;;;;4.07;1.20;;;22.80;29.70;;;;;;10527343;27;20227;-76
2022/06/09 15:19:57;;;;;;;3.07;1.20;;;22.80;29.40;;;;;;10510431;28;20232;-76
2022/06/09 15:25:00;;;;;;;4.50;1.17;;;22.80;29.90;;;;;;10513445;28;20224;-76
2022/06/09 15:30:05;;;;;;;1.73;0.93;;;22.70;29.60;;;;;;10508860;28;20227;-76
2022/06/09 15:35:11;;;;;;;2.00;1.30;;;22.60;29.20;;;;;;10505922;28;20274;-76
2022/06/09 15:40:18;;;;;;;2.27;1.40;;;22.60;29.10;;;;;;10508681;28;20231;-76
2022/06/09 15:45:23;;;;;;;1.67;1.30;;;22.60;28.80;;;;;;10508307;28;20223;-76
2022/06/09 15:50:27;;;;;;;1.63;1.30;;;22.50;28.70;;;;;;10508546;28;20262;-76
2022/06/09 15:55:30;;;;;;;1.67;1.20;;;22.50;30.00;;;;;;10515089;28;20251;-76
2022/06/09 16:00:36;;;;;;;2.77;1.00;;;22.50;29.50;;;;;;10508824;28;20232;-76
2022/06/09 16:05:41;;;;;;;2.87;1.27;;;22.50;29.30;;;;;;10511411;28;20666;-76
2022/06/09 16:10:47;;;;;;;1.23;1.13;;;22.50;29.40;;;;;;10507230;28;20215;-76
2022/06/09 16:15:53;;;;;;;3.03;1.33;;;22.50;29.40;;;;;;10509947;28;20231;-76
2022/06/09 16:20:56;;;;;;;2.20;1.40;;;22.40;29.60;;;;;;10502497;28;20602;-76
2022/06/09 16:26:00;;;;;;;3.00;1.47;;;22.40;29.80;;;;;;10512991;28;20868;-75
2022/06/09 16:31:05;;;;;;;1.43;1.17;;;22.30;29.60;;;;;;10503991;28;20223;-75
2022/06/09 16:36:08;;;;;;;3.50;1.10;;;22.30;29.40;;;;;;10509885;28;20354;-75
2022/06/09 16:41:12;;;;;;;2.70;1.20;;;22.40;29.60;;;;;;10506502;28;20269;-75
2022/06/09 16:46:18;;;;;;;2.63;1.40;;;22.30;29.50;;;;;;10503844;28;20258;-75
2022/06/09 16:51:22;;;;;;;2.50;1.50;;;22.30;29.20;;;;;;10505429;28;20300;-75
2022/06/09 16:56:25;;;;;;;1.30;0.97;;;22.30;29.60;;;;;;10505852;28;20314;-76
2022/06/09 17:01:30;;;;;;;1.80;1.20;;;22.30;29.70;;;;;;10504925;28;20708;-75
2022/06/09 17:06:34;;;;;;;1.93;1.20;;;22.30;29.50;;;;;;10514379;28;20231;-75
2022/06/09 17:11:40;;;;;;;1.50;1.30;;;22.30;29.60;;;;;;10505429;28;20225;-76
2022/06/09 17:16:44;;;;;;;2.13;0.93;;;22.40;29.70;;;;;;10507611;28;20243;-75
2022/06/09 17:21:48;;;;;;;3.87;1.23;;;22.40;29.50;;;;;;10511525;28;20322;-75
2022/06/09 17:26:51;;;;;;;2.33;1.17;;;22.40;29.70;;;;;;10508037;28;20231;-75
2022/06/09 17:31:56;;;;;;;1.23;1.00;;;22.40;29.40;;;;;;10499989;28;20733;-75
2022/06/09 17:36:59;;;;;;;1.67;1.20;;;22.40;29.40;;;;;;10503955;28;20227;-75
2022/06/09 17:42:03;;;;;;;1.27;1.10;;;22.30;29.20;;;;;;10506074;28;20219;-75
2022/06/09 17:47:07;;;;;;;2.30;1.10;;;22.30;29.30;;;;;;10503996;28;20220;-75
2022/06/09 17:52:11;;;;;;;1.50;1.10;;;22.20;29.30;;;;;;10500997;28;20219;-76
2022/06/09 17:57:14;;;;;;;1.67;0.90;;;22.10;29.10;;;;;;10503108;28;20219;-76
2022/06/09 18:02:19;;;;;;;1.63;1.00;;;22.10;29.20;;;;;;10513189;28;20650;-75
2022/06/09 18:07:23;;;;;;;2.33;1.10;;;22.00;29.00;;;;;;10504411;28;20231;-75
2022/06/09 18:12:27;;;;;;;2.50;0.90;;;22.00;29.10;;;;;;10507193;28;20229;-75
2022/06/09 18:17:32;;;;;;;1.43;0.90;;;22.00;29.20;;;;;;10501472;28;20259;-76
2022/06/09 18:22:35;;;;;;;2.20;1.00;;;21.90;29.30;;;;;;10510729;28;20235;-75
2022/06/09 18:27:38;;;;;;;1.27;1.10;;;21.90;29.40;;;;;;10511562;28;20806;-75
2022/06/09 18:32:43;;;;;;;1.63;1.07;;;21.90;29.60;;;;;;10506681;28;20235;-75
2022/06/09 18:37:46;;;;;;;0.77;0.77;;;21.90;29.40;;;;;;10514509;28;20230;-75
2022/06/09 18:42:52;;;;;;;1.53;1.10;;;21.90;29.60;;;;;;10511601;28;20813;-75
2022/06/09 18:47:56;;;;;;;1.00;0.83;;;21.90;29.60;;;;;;10510398;28;20220;-75
2022/06/09 18:52:59;;;;;;;1.33;0.90;;;21.90;29.60;;;;;;10510297;28;20223;-75
2022/06/09 18:58:04;;;;;;;1.07;0.90;;;21.90;29.70;;;;;;10513284;28;20227;-75
2022/06/09 19:03:10;;;;;;;1.50;1.00;;;21.90;29.80;;;;;;10517781;28;20232;-75
2022/06/09 19:08:18;;;;;;;1.97;0.90;;;21.90;29.90;;;;;;10513417;28;20231;-75
2022/06/09 19:13:22;;;;;;;1.43;1.13;;;21.90;30.10;;;;;;10517538;28;20243;-75
2022/06/09 19:18:27;;;;;;;1.27;1.10;;;21.90;30.20;;;;;;10512501;28;20227;-75
2022/06/09 19:23:31;;;;;;;1.53;1.13;;;21.80;30.20;;;;;;10513076;28;20232;-75
2022/06/09 19:28:35;;;;;;;1.80;0.90;;;21.80;30.40;;;;;;10507497;28;20227;-75
2022/06/09 19:33:40;;;;;;;2.10;1.13;;;21.80;30.40;;;;;;10503641;28;20236;-75
2022/06/09 19:38:43;;;;;;;1.27;1.13;;;21.70;30.50;;;;;;10513170;28;20595;-75
2022/06/09 19:43:46;;;;;;;1.93;1.13;;;21.70;30.70;;;;;;10513112;28;20231;-75
2022/06/09 19:48:52;;;;;;;1.40;1.30;;;21.70;30.90;;;;;;10504528;28;20227;-75
2022/06/09 19:53:56;;;;;;;1.57;1.20;;;21.60;31.10;;;;;;10516771;28;20238;-75
2022/06/09 19:58:59;;;;;;;1.40;1.30;;;21.60;31.00;;;;;;10506888;28;20315;-75
2022/06/09 20:04:04;;;;;;;2.30;1.23;;;21.60;31.10;;;;;;10513992;28;20606;-75
2022/06/09 20:09:07;;;;;;;1.30;1.20;;;21.50;31.40;;;;;;10513890;28;20243;-75
2022/06/09 20:14:11;;;;;;;1.50;1.20;;;21.50;31.10;;;;;;10513898;28;20234;-75
2022/06/09 20:19:15;;;;;;;1.77;1.00;;;21.30;30.40;;;;;;10513809;28;20239;-75
2022/06/09 20:24:18;;;;;;;2.07;1.37;;;21.30;30.40;;;;;;10512029;28;20224;-75
2022/06/09 20:29:22;;;;;;;1.60;1.03;;;21.10;30.40;;;;;;10512795;28;20254;-75
2022/06/09 20:34:26;;;;;;;1.77;1.10;;;20.90;30.30;;;;;;10506986;28;20598;-75
2022/06/09 20:39:29;;;;;;;1.80;1.30;;;20.80;30.40;;;;;;10509038;28;20228;-75
2022/06/09 20:44:33;;;;;;;1.10;1.00;;;20.60;30.40;;;;;;10512267;28;20238;-75
2022/06/09 20:49:40;;;;;;;1.30;1.20;;;20.50;30.60;;;;;;10508985;28;20230;-75
2022/06/09 20:54:44;;;;;;;0.90;0.90;;;20.40;30.70;;;;;;10507835;28;20231;-75
2022/06/09 20:59:47;;;;;;;2.33;1.00;;;20.30;30.70;;;;;;10509543;28;20224;-75
2022/06/09 21:04:52;;;;;;;0.90;0.90;;;20.30;30.80;;;;;;10507541;28;20719;-75
2022/06/09 21:09:55;;;;;;;1.00;0.90;;;20.20;30.90;;;;;;10507692;28;20228;-75
2022/06/09 21:20:20;;;;;;;2.17;1.10;;;20.10;31.00;;;;;;10511937;28;20215;-75
2022/06/09 21:25:23;;;;;;;1.93;1.20;;;20.00;31.10;;;;;;10505613;28;20235;-75
2022/06/09 21:30:27;;;;;;;1.00;1.00;;;19.90;31.00;;;;;;10508535;28;20230;-75
2022/06/09 21:35:31;;;;;;;1.27;1.20;;;19.80;31.10;;;;;;10508687;28;20754;-75
2022/06/09 21:40:35;;;;;;;1.37;1.17;;;19.80;31.50;;;;;;10515615;28;20238;-75
2022/06/09 21:45:38;;;;;;;2.13;1.33;;;19.70;31.40;;;;;;10504484;28;20235;-75
2022/06/09 21:50:43;;;;;;;1.77;1.27;;;19.70;31.60;;;;;;10506124;28;20235;-75
2022/06/09 21:55:46;;;;;;;1.93;1.17;;;19.60;31.70;;;;;;10512308;28;20277;-75
2022/06/09 22:00:51;;;;;;;1.67;1.30;;;19.60;31.70;;;;;;10505306;28;20224;-75
2022/06/09 22:05:57;;;;;;;2.20;1.50;;;19.50;31.70;;;;;;10508102;28;20254;-75
2022/06/09 22:11:00;;;;;;;1.70;1.20;;;19.50;32.10;;;;;;10516490;28;20266;-75
2022/06/09 22:16:04;;;;;;;1.80;1.10;;;19.40;31.90;;;;;;10566262;27;20223;-75
2022/06/09 22:21:09;;;;;;;2.13;1.27;;;19.40;31.90;;;;;;10559374;27;20227;-75
2022/06/09 22:26:12;;;;;;;1.60;1.10;;;19.30;32.00;;;;;;10561450;27;20241;-75
2022/06/09 22:31:16;;;;;;;2.30;1.10;;;19.30;31.90;;;;;;10566442;27;20219;-75
2022/06/09 22:36:20;;;;;;;1.60;1.20;;;19.30;32.00;;;;;;10558783;27;20226;-75
2022/06/09 22:41:24;;;;;;;1.43;1.30;;;19.30;32.20;;;;;;10564498;27;20632;-75
2022/06/09 22:46:27;;;;;;;1.40;1.30;;;19.20;32.10;;;;;;10559909;27;20238;-75
2022/06/09 22:51:31;;;;;;;1.83;1.10;;;19.20;32.30;;;;;;10566702;28;20215;-75
2022/06/09 22:56:35;;;;;;;1.30;1.20;;;19.10;32.40;;;;;;10561990;27;20242;-75
2022/06/09 23:01:38;;;;;;;1.50;1.20;;;19.10;32.30;;;;;;10569178;28;20238;-75
2022/06/09 23:06:42;;;;;;;1.83;1.20;;;19.10;32.20;;;;;;10561595;27;20238;-75
2022/06/09 23:11:46;;;;;;;1.70;1.10;;;19.00;32.40;;;;;;10563931;27;20231;-75
2022/06/09 23:16:49;;;;;;;1.30;1.20;;;19.00;32.30;;;;;;10565234;28;20227;-75
2022/06/09 23:21:53;;;;;;;1.30;1.20;;;19.00;32.30;;;;;;10559841;27;20420;-75
2022/06/09 23:26:57;;;;;;;1.20;1.10;;;18.90;32.50;;;;;;10557449;27;20227;-75
2022/06/09 23:32:00;;;;;;;2.13;1.37;;;18.90;32.40;;;;;;10559479;27;20223;-75
2022/06/09 23:37:05;;;;;;;1.20;1.20;;;18.90;32.50;;;;;;10557209;27;20220;-75
2022/06/09 23:42:09;;;;;;;1.90;1.20;;;18.80;32.80;;;;;;10558158;27;20594;-75
2022/06/09 23:47:12;;;;;;;1.60;1.17;;;18.80;32.70;;;;;;10557585;27;20254;-75
2022/06/09 23:52:17;;;;;;;1.70;1.30;;;18.70;32.70;;;;;;10558333;27;20920;-75
2022/06/09 23:57:21;;;;;;;2.60;1.37;;;18.70;33.10;;;;;;10556564;27;20230;-75
